Ansonville, North Carolina
Current Conditions -  °F | °C
As of 6:55 AM on Sunday 25 Jan 2015 (Local Time) from KAFP Reporting Station
Clear Clear  
Wind Chill: 28°   Ceiling: Unl
Heat Index: 28°   Visibility: 10mi
Dew Point: 26°   Wind: 3mph
Humidity: 93%   Direction: 230°SW
Pressure: 29.95"   Gusts: NA
Location:  35.1°N, 80.11°W
Report Text: KAFP 251155Z AUTO 23003KT 10SM CLR M02/M03 A2995 RMK AO2 70002 T10251035 11004 21032
Loading
Personal Weather Stations






























Interactive Weather Map New forecast layout! Learn more

10-Day Weather Forecast

Advertisements
Track Severe Weather on mobile